sensor_id;sensor_type;location;lat;lon;timestamp;P1;durP1;ratioP1;P2;durP2;ratioP2
48415;SDS011;34227;51.840;4.146;2022-08-19T00:01:49;5.15;;;4.10;;
48415;SDS011;34227;51.840;4.146;2022-08-19T00:04:16;5.38;;;3.67;;
48415;SDS011;34227;51.840;4.146;2022-08-19T00:06:45;7.80;;;5.00;;
48415;SDS011;34227;51.840;4.146;2022-08-19T00:09:12;8.15;;;4.93;;
48415;SDS011;34227;51.840;4.146;2022-08-19T00:11:39;11.15;;;4.72;;
48415;SDS011;34227;51.840;4.146;2022-08-19T00:14:06;11.27;;;5.20;;
48415;SDS011;34227;51.840;4.146;2022-08-19T00:16:38;9.93;;;6.07;;
48415;SDS011;34227;51.840;4.146;2022-08-19T00:19:06;8.60;;;6.43;;
48415;SDS011;34227;51.840;4.146;2022-08-19T00:21:32;9.00;;;6.60;;
48415;SDS011;34227;51.840;4.146;2022-08-19T00:24:08;9.50;;;5.57;;
48415;SDS011;34227;51.840;4.146;2022-08-19T00:26:38;11.07;;;7.65;;
48415;SDS011;34227;51.840;4.146;2022-08-19T00:29:08;11.93;;;8.95;;
48415;SDS011;34227;51.840;4.146;2022-08-19T00:31:36;17.98;;;12.18;;
48415;SDS011;34227;51.840;4.146;2022-08-19T00:34:01;16.83;;;11.10;;
48415;SDS011;34227;51.840;4.146;2022-08-19T00:36:27;20.17;;;12.00;;
48415;SDS011;34227;51.840;4.146;2022-08-19T00:38:54;16.70;;;12.70;;
48415;SDS011;34227;51.840;4.146;2022-08-19T00:41:20;20.05;;;14.02;;
48415;SDS011;34227;51.840;4.146;2022-08-19T00:46:22;22.40;;;15.48;;
48415;SDS011;34227;51.840;4.146;2022-08-19T00:48:48;22.65;;;14.82;;
48415;SDS011;34227;51.840;4.146;2022-08-19T00:51:14;24.40;;;16.48;;
48415;SDS011;34227;51.840;4.146;2022-08-19T00:53:40;25.25;;;15.23;;
48415;SDS011;34227;51.840;4.146;2022-08-19T00:56:05;24.02;;;17.35;;
48415;SDS011;34227;51.840;4.146;2022-08-19T00:58:32;25.50;;;16.80;;
48415;SDS011;34227;51.840;4.146;2022-08-19T01:01:01;30.77;;;19.77;;
48415;SDS011;34227;51.840;4.146;2022-08-19T01:03:28;28.63;;;19.33;;
48415;SDS011;34227;51.840;4.146;2022-08-19T01:05:54;29.80;;;18.15;;
48415;SDS011;34227;51.840;4.146;2022-08-19T01:08:20;32.75;;;20.60;;
48415;SDS011;34227;51.840;4.146;2022-08-19T01:10:48;31.95;;;22.88;;
48415;SDS011;34227;51.840;4.146;2022-08-19T01:13:21;30.00;;;21.40;;
48415;SDS011;34227;51.840;4.146;2022-08-19T01:16:02;36.25;;;21.55;;
48415;SDS011;34227;51.840;4.146;2022-08-19T01:18:30;33.03;;;22.27;;
48415;SDS011;34227;51.840;4.146;2022-08-19T01:21:01;33.40;;;21.83;;
48415;SDS011;34227;51.840;4.146;2022-08-19T01:23:32;36.10;;;21.98;;
48415;SDS011;34227;51.840;4.146;2022-08-19T01:26:26;28.92;;;20.00;;
48415;SDS011;34227;51.840;4.146;2022-08-19T01:28:54;31.65;;;19.52;;
48415;SDS011;34227;51.840;4.146;2022-08-19T01:31:24;31.48;;;19.52;;
48415;SDS011;34227;51.840;4.146;2022-08-19T01:33:55;28.83;;;17.30;;
48415;SDS011;34227;51.840;4.146;2022-08-19T01:36:23;26.13;;;18.98;;
48415;SDS011;34227;51.840;4.146;2022-08-19T01:38:53;33.42;;;20.55;;
48415;SDS011;34227;51.840;4.146;2022-08-19T01:41:20;30.10;;;19.88;;
48415;SDS011;34227;51.840;4.146;2022-08-19T01:43:48;30.77;;;19.88;;
48415;SDS011;34227;51.840;4.146;2022-08-19T01:46:15;30.98;;;21.23;;
48415;SDS011;34227;51.840;4.146;2022-08-19T01:48:41;32.55;;;21.63;;
48415;SDS011;34227;51.840;4.146;2022-08-19T01:51:08;37.75;;;22.88;;
48415;SDS011;34227;51.840;4.146;2022-08-19T01:53:35;34.65;;;21.88;;
48415;SDS011;34227;51.840;4.146;2022-08-19T01:56:02;37.80;;;22.00;;
48415;SDS011;34227;51.840;4.146;2022-08-19T01:58:30;41.33;;;24.13;;
48415;SDS011;34227;51.840;4.146;2022-08-19T02:01:01;37.05;;;21.42;;
48415;SDS011;34227;51.840;4.146;2022-08-19T02:03:27;40.67;;;22.73;;
48415;SDS011;34227;51.840;4.146;2022-08-19T02:05:57;38.30;;;22.58;;
48415;SDS011;34227;51.840;4.146;2022-08-19T02:08:27;34.88;;;21.30;;
48415;SDS011;34227;51.840;4.146;2022-08-19T02:10:58;33.92;;;21.42;;
48415;SDS011;34227;51.840;4.146;2022-08-19T02:13:24;38.47;;;22.38;;
48415;SDS011;34227;51.840;4.146;2022-08-19T02:15:51;40.28;;;23.92;;
48415;SDS011;34227;51.840;4.146;2022-08-19T02:18:16;44.83;;;27.20;;
48415;SDS011;34227;51.840;4.146;2022-08-19T02:20:43;53.03;;;30.08;;
48415;SDS011;34227;51.840;4.146;2022-08-19T02:23:10;65.78;;;33.28;;
48415;SDS011;34227;51.840;4.146;2022-08-19T02:25:37;57.53;;;32.03;;
48415;SDS011;34227;51.840;4.146;2022-08-19T02:28:02;54.67;;;32.15;;
48415;SDS011;34227;51.840;4.146;2022-08-19T02:30:29;62.25;;;35.33;;
48415;SDS011;34227;51.840;4.146;2022-08-19T02:32:55;65.72;;;37.58;;
48415;SDS011;34227;51.840;4.146;2022-08-19T02:35:20;62.45;;;34.92;;
48415;SDS011;34227;51.840;4.146;2022-08-19T02:37:46;66.18;;;38.38;;
48415;SDS011;34227;51.840;4.146;2022-08-19T02:40:31;71.93;;;37.45;;
48415;SDS011;34227;51.840;4.146;2022-08-19T02:43:01;72.13;;;39.03;;
48415;SDS011;34227;51.840;4.146;2022-08-19T02:45:32;69.53;;;37.03;;
48415;SDS011;34227;51.840;4.146;2022-08-19T02:48:02;69.20;;;36.40;;
48415;SDS011;34227;51.840;4.146;2022-08-19T02:50:29;64.47;;;36.28;;
48415;SDS011;34227;51.840;4.146;2022-08-19T02:52:56;62.63;;;34.28;;
48415;SDS011;34227;51.840;4.146;2022-08-19T02:55:22;62.17;;;34.08;;
48415;SDS011;34227;51.840;4.146;2022-08-19T02:57:48;62.63;;;36.15;;
48415;SDS011;34227;51.840;4.146;2022-08-19T03:00:14;66.90;;;35.10;;
48415;SDS011;34227;51.840;4.146;2022-08-19T03:02:40;62.38;;;34.97;;
48415;SDS011;34227;51.840;4.146;2022-08-19T03:05:07;55.45;;;31.90;;
48415;SDS011;34227;51.840;4.146;2022-08-19T03:07:34;49.13;;;29.52;;
48415;SDS011;34227;51.840;4.146;2022-08-19T03:10:03;53.55;;;30.75;;
48415;SDS011;34227;51.840;4.146;2022-08-19T03:12:31;50.70;;;30.67;;
48415;SDS011;34227;51.840;4.146;2022-08-19T03:15:00;49.50;;;30.08;;
48415;SDS011;34227;51.840;4.146;2022-08-19T03:17:25;46.13;;;29.08;;
48415;SDS011;34227;51.840;4.146;2022-08-19T03:19:51;54.58;;;29.20;;
48415;SDS011;34227;51.840;4.146;2022-08-19T03:22:17;49.28;;;29.85;;
48415;SDS011;34227;51.840;4.146;2022-08-19T03:24:42;50.95;;;29.38;;
48415;SDS011;34227;51.840;4.146;2022-08-19T03:27:08;53.42;;;28.30;;
48415;SDS011;34227;51.840;4.146;2022-08-19T03:29:34;46.33;;;27.25;;
48415;SDS011;34227;51.840;4.146;2022-08-19T03:32:03;49.15;;;26.38;;
48415;SDS011;34227;51.840;4.146;2022-08-19T03:34:33;44.22;;;25.38;;
48415;SDS011;34227;51.840;4.146;2022-08-19T03:37:04;44.88;;;25.40;;
48415;SDS011;34227;51.840;4.146;2022-08-19T03:39:32;41.90;;;24.40;;
48415;SDS011;34227;51.840;4.146;2022-08-19T03:42:00;44.75;;;24.67;;
48415;SDS011;34227;51.840;4.146;2022-08-19T03:44:27;38.08;;;23.70;;
48415;SDS011;34227;51.840;4.146;2022-08-19T03:46:55;41.22;;;24.35;;
48415;SDS011;34227;51.840;4.146;2022-08-19T03:49:23;45.50;;;22.70;;
48415;SDS011;34227;51.840;4.146;2022-08-19T03:51:54;44.75;;;23.33;;
48415;SDS011;34227;51.840;4.146;2022-08-19T03:54:22;37.70;;;21.95;;
48415;SDS011;34227;51.840;4.146;2022-08-19T03:56:49;37.53;;;20.88;;
48415;SDS011;34227;51.840;4.146;2022-08-19T03:59:18;38.10;;;22.23;;
48415;SDS011;34227;51.840;4.146;2022-08-19T04:01:50;46.97;;;22.42;;
48415;SDS011;34227;51.840;4.146;2022-08-19T04:04:16;43.08;;;23.20;;
48415;SDS011;34227;51.840;4.146;2022-08-19T04:06:42;43.75;;;22.50;;
48415;SDS011;34227;51.840;4.146;2022-08-19T04:09:09;48.25;;;21.95;;
48415;SDS011;34227;51.840;4.146;2022-08-19T04:11:39;53.60;;;23.92;;
48415;SDS011;34227;51.840;4.146;2022-08-19T04:14:11;40.95;;;23.67;;
48415;SDS011;34227;51.840;4.146;2022-08-19T04:16:39;36.85;;;22.00;;
48415;SDS011;34227;51.840;4.146;2022-08-19T04:19:08;44.45;;;22.27;;
48415;SDS011;34227;51.840;4.146;2022-08-19T04:21:34;50.47;;;24.40;;
48415;SDS011;34227;51.840;4.146;2022-08-19T04:24:00;42.45;;;21.50;;
48415;SDS011;34227;51.840;4.146;2022-08-19T04:26:27;39.90;;;23.75;;
48415;SDS011;34227;51.840;4.146;2022-08-19T04:28:57;41.15;;;21.70;;
48415;SDS011;34227;51.840;4.146;2022-08-19T04:31:25;42.55;;;21.95;;
48415;SDS011;34227;51.840;4.146;2022-08-19T04:33:54;39.67;;;22.95;;
48415;SDS011;34227;51.840;4.146;2022-08-19T04:36:25;34.03;;;21.08;;
48415;SDS011;34227;51.840;4.146;2022-08-19T04:38:53;39.58;;;21.60;;
48415;SDS011;34227;51.840;4.146;2022-08-19T04:41:22;39.20;;;21.05;;
48415;SDS011;34227;51.840;4.146;2022-08-19T04:44:06;38.60;;;18.45;;
48415;SDS011;34227;51.840;4.146;2022-08-19T04:46:32;40.72;;;20.73;;
48415;SDS011;34227;51.840;4.146;2022-08-19T04:48:58;32.90;;;19.30;;
48415;SDS011;34227;51.840;4.146;2022-08-19T04:51:27;32.08;;;18.52;;
48415;SDS011;34227;51.840;4.146;2022-08-19T04:53:56;38.67;;;20.15;;
48415;SDS011;34227;51.840;4.146;2022-08-19T04:56:22;37.05;;;18.85;;
48415;SDS011;34227;51.840;4.146;2022-08-19T04:58:51;35.22;;;17.90;;
48415;SDS011;34227;51.840;4.146;2022-08-19T05:01:23;33.83;;;18.35;;
48415;SDS011;34227;51.840;4.146;2022-08-19T05:03:51;30.77;;;18.10;;
48415;SDS011;34227;51.840;4.146;2022-08-19T05:06:19;34.97;;;19.05;;
48415;SDS011;34227;51.840;4.146;2022-08-19T05:08:46;36.95;;;19.95;;
48415;SDS011;34227;51.840;4.146;2022-08-19T05:11:16;33.63;;;18.67;;
48415;SDS011;34227;51.840;4.146;2022-08-19T05:13:53;33.95;;;19.48;;
48415;SDS011;34227;51.840;4.146;2022-08-19T05:16:20;38.40;;;19.08;;
48415;SDS011;34227;51.840;4.146;2022-08-19T05:18:47;33.03;;;18.35;;
48415;SDS011;34227;51.840;4.146;2022-08-19T05:21:32;33.92;;;17.75;;
48415;SDS011;34227;51.840;4.146;2022-08-19T05:24:17;38.25;;;18.42;;
48415;SDS011;34227;51.840;4.146;2022-08-19T05:26:45;31.75;;;17.92;;
48415;SDS011;34227;51.840;4.146;2022-08-19T05:29:14;34.08;;;18.15;;
48415;SDS011;34227;51.840;4.146;2022-08-19T05:31:41;29.83;;;17.73;;
48415;SDS011;34227;51.840;4.146;2022-08-19T05:34:07;33.50;;;16.73;;
48415;SDS011;34227;51.840;4.146;2022-08-19T05:36:41;33.03;;;16.45;;
48415;SDS011;34227;51.840;4.146;2022-08-19T05:39:09;37.05;;;17.27;;
48415;SDS011;34227;51.840;4.146;2022-08-19T05:41:42;30.52;;;15.93;;
48415;SDS011;34227;51.840;4.146;2022-08-19T05:44:08;32.05;;;16.00;;
48415;SDS011;34227;51.840;4.146;2022-08-19T05:46:38;35.92;;;17.52;;
48415;SDS011;34227;51.840;4.146;2022-08-19T05:49:07;31.70;;;16.02;;
48415;SDS011;34227;51.840;4.146;2022-08-19T05:51:33;27.85;;;15.93;;
48415;SDS011;34227;51.840;4.146;2022-08-19T05:54:04;28.88;;;14.23;;
48415;SDS011;34227;51.840;4.146;2022-08-19T05:56:31;27.58;;;14.88;;
48415;SDS011;34227;51.840;4.146;2022-08-19T05:58:58;26.95;;;16.02;;
48415;SDS011;34227;51.840;4.146;2022-08-19T06:01:24;30.50;;;15.68;;
48415;SDS011;34227;51.840;4.146;2022-08-19T06:03:51;34.25;;;16.27;;
48415;SDS011;34227;51.840;4.146;2022-08-19T06:06:18;31.80;;;17.33;;
48415;SDS011;34227;51.840;4.146;2022-08-19T06:08:45;33.10;;;15.52;;
48415;SDS011;34227;51.840;4.146;2022-08-19T06:11:17;25.27;;;14.25;;
48415;SDS011;34227;51.840;4.146;2022-08-19T06:14:05;23.85;;;14.50;;
48415;SDS011;34227;51.840;4.146;2022-08-19T06:16:34;25.30;;;13.13;;
48415;SDS011;34227;51.840;4.146;2022-08-19T06:19:03;29.17;;;13.60;;
48415;SDS011;34227;51.840;4.146;2022-08-19T06:21:31;28.63;;;14.27;;
48415;SDS011;34227;51.840;4.146;2022-08-19T06:23:58;25.15;;;14.45;;
48415;SDS011;34227;51.840;4.146;2022-08-19T06:26:24;29.27;;;13.38;;
48415;SDS011;34227;51.840;4.146;2022-08-19T06:28:50;29.35;;;13.52;;
48415;SDS011;34227;51.840;4.146;2022-08-19T06:31:19;26.23;;;13.23;;
48415;SDS011;34227;51.840;4.146;2022-08-19T06:33:49;22.50;;;13.52;;
48415;SDS011;34227;51.840;4.146;2022-08-19T06:38:45;27.63;;;12.07;;
48415;SDS011;34227;51.840;4.146;2022-08-19T06:41:10;28.13;;;12.38;;
48415;SDS011;34227;51.840;4.146;2022-08-19T06:43:36;21.20;;;11.48;;
48415;SDS011;34227;51.840;4.146;2022-08-19T06:46:03;24.50;;;10.48;;
48415;SDS011;34227;51.840;4.146;2022-08-19T06:48:29;19.15;;;11.25;;
48415;SDS011;34227;51.840;4.146;2022-08-19T06:50:55;22.80;;;11.70;;
48415;SDS011;34227;51.840;4.146;2022-08-19T06:53:21;24.75;;;12.02;;
48415;SDS011;34227;51.840;4.146;2022-08-19T06:55:47;19.88;;;10.68;;
48415;SDS011;34227;51.840;4.146;2022-08-19T06:58:12;18.58;;;10.02;;
48415;SDS011;34227;51.840;4.146;2022-08-19T07:00:39;24.10;;;11.38;;
48415;SDS011;34227;51.840;4.146;2022-08-19T07:03:05;19.98;;;10.85;;
48415;SDS011;34227;51.840;4.146;2022-08-19T07:05:30;26.35;;;11.68;;
48415;SDS011;34227;51.840;4.146;2022-08-19T07:07:56;19.63;;;9.88;;
48415;SDS011;34227;51.840;4.146;2022-08-19T07:10:22;23.75;;;10.32;;
48415;SDS011;34227;51.840;4.146;2022-08-19T07:12:48;17.52;;;8.88;;
48415;SDS011;34227;51.840;4.146;2022-08-19T07:15:15;23.83;;;9.27;;
48415;SDS011;34227;51.840;4.146;2022-08-19T07:17:41;19.77;;;8.70;;
48415;SDS011;34227;51.840;4.146;2022-08-19T07:20:08;12.95;;;7.78;;
48415;SDS011;34227;51.840;4.146;2022-08-19T07:22:35;12.95;;;7.97;;
48415;SDS011;34227;51.840;4.146;2022-08-19T07:25:06;18.73;;;8.65;;
48415;SDS011;34227;51.840;4.146;2022-08-19T07:27:35;17.90;;;8.45;;
48415;SDS011;34227;51.840;4.146;2022-08-19T07:30:02;16.48;;;7.72;;
48415;SDS011;34227;51.840;4.146;2022-08-19T07:32:30;15.20;;;8.02;;
48415;SDS011;34227;51.840;4.146;2022-08-19T07:34:56;18.00;;;8.10;;
48415;SDS011;34227;51.840;4.146;2022-08-19T07:37:21;18.40;;;8.52;;
48415;SDS011;34227;51.840;4.146;2022-08-19T07:39:48;14.65;;;7.85;;
48415;SDS011;34227;51.840;4.146;2022-08-19T07:42:14;14.90;;;7.22;;
48415;SDS011;34227;51.840;4.146;2022-08-19T07:44:40;12.40;;;5.60;;
48415;SDS011;34227;51.840;4.146;2022-08-19T07:47:06;11.93;;;4.93;;
48415;SDS011;34227;51.840;4.146;2022-08-19T07:49:32;11.80;;;4.70;;
48415;SDS011;34227;51.840;4.146;2022-08-19T07:52:00;12.55;;;4.55;;
48415;SDS011;34227;51.840;4.146;2022-08-19T07:54:30;10.82;;;5.22;;
48415;SDS011;34227;51.840;4.146;2022-08-19T07:56:59;16.58;;;6.05;;
48415;SDS011;34227;51.840;4.146;2022-08-19T07:59:26;10.88;;;4.85;;
48415;SDS011;34227;51.840;4.146;2022-08-19T08:01:53;11.90;;;3.88;;
48415;SDS011;34227;51.840;4.146;2022-08-19T08:04:20;7.88;;;3.90;;
48415;SDS011;34227;51.840;4.146;2022-08-19T08:07:05;7.72;;;3.97;;
48415;SDS011;34227;51.840;4.146;2022-08-19T08:09:51;8.50;;;3.58;;
48415;SDS011;34227;51.840;4.146;2022-08-19T08:12:22;10.68;;;4.38;;
48415;SDS011;34227;51.840;4.146;2022-08-19T08:17:24;11.75;;;4.35;;
48415;SDS011;34227;51.840;4.146;2022-08-19T08:19:52;13.57;;;4.22;;
48415;SDS011;34227;51.840;4.146;2022-08-19T08:22:19;9.23;;;3.58;;
48415;SDS011;34227;51.840;4.146;2022-08-19T08:25:12;12.25;;;4.28;;
48415;SDS011;34227;51.840;4.146;2022-08-19T08:27:40;10.77;;;4.25;;
48415;SDS011;34227;51.840;4.146;2022-08-19T08:30:15;7.50;;;3.60;;
48415;SDS011;34227;51.840;4.146;2022-08-19T08:32:44;7.22;;;3.25;;
48415;SDS011;34227;51.840;4.146;2022-08-19T08:35:11;7.93;;;3.55;;
48415;SDS011;34227;51.840;4.146;2022-08-19T08:37:39;8.10;;;3.53;;
48415;SDS011;34227;51.840;4.146;2022-08-19T08:40:07;9.52;;;3.67;;
48415;SDS011;34227;51.840;4.146;2022-08-19T08:43:03;6.10;;;3.10;;
48415;SDS011;34227;51.840;4.146;2022-08-19T08:45:36;6.18;;;3.55;;
48415;SDS011;34227;51.840;4.146;2022-08-19T08:48:16;7.90;;;3.20;;
48415;SDS011;34227;51.840;4.146;2022-08-19T08:50:46;7.35;;;3.15;;
48415;SDS011;34227;51.840;4.146;2022-08-19T08:53:17;9.23;;;3.00;;
48415;SDS011;34227;51.840;4.146;2022-08-19T08:55:45;9.60;;;3.30;;
48415;SDS011;34227;51.840;4.146;2022-08-19T08:58:13;6.00;;;2.50;;
48415;SDS011;34227;51.840;4.146;2022-08-19T09:00:46;6.47;;;2.80;;
48415;SDS011;34227;51.840;4.146;2022-08-19T09:03:20;6.25;;;2.55;;
48415;SDS011;34227;51.840;4.146;2022-08-19T09:08:59;6.68;;;2.50;;
48415;SDS011;34227;51.840;4.146;2022-08-19T09:14:46;5.72;;;1.90;;
48415;SDS011;34227;51.840;4.146;2022-08-19T09:17:13;4.18;;;2.20;;
48415;SDS011;34227;51.840;4.146;2022-08-19T09:19:53;3.70;;;1.92;;
48415;SDS011;34227;51.840;4.146;2022-08-19T09:22:23;4.65;;;2.17;;
48415;SDS011;34227;51.840;4.146;2022-08-19T09:24:49;4.70;;;1.75;;
48415;SDS011;34227;51.840;4.146;2022-08-19T09:27:17;6.97;;;1.77;;
48415;SDS011;34227;51.840;4.146;2022-08-19T09:29:45;3.80;;;1.80;;
48415;SDS011;34227;51.840;4.146;2022-08-19T09:32:14;4.55;;;1.70;;
48415;SDS011;34227;51.840;4.146;2022-08-19T09:34:40;6.15;;;1.80;;
48415;SDS011;34227;51.840;4.146;2022-08-19T09:37:06;4.18;;;1.80;;
48415;SDS011;34227;51.840;4.146;2022-08-19T09:39:32;3.25;;;1.55;;
48415;SDS011;34227;51.840;4.146;2022-08-19T09:41:58;3.88;;;1.50;;
48415;SDS011;34227;51.840;4.146;2022-08-19T09:44:24;5.45;;;1.80;;
48415;SDS011;34227;51.840;4.146;2022-08-19T09:46:49;2.53;;;1.52;;
48415;SDS011;34227;51.840;4.146;2022-08-19T09:49:17;5.13;;;1.55;;
48415;SDS011;34227;51.840;4.146;2022-08-19T09:51:44;5.35;;;1.60;;
48415;SDS011;34227;51.840;4.146;2022-08-19T09:54:10;5.75;;;1.33;;
48415;SDS011;34227;51.840;4.146;2022-08-19T09:56:35;5.20;;;1.63;;
48415;SDS011;34227;51.840;4.146;2022-08-19T09:59:02;4.05;;;1.55;;
48415;SDS011;34227;51.840;4.146;2022-08-19T10:01:29;3.92;;;1.58;;
48415;SDS011;34227;51.840;4.146;2022-08-19T10:03:56;4.28;;;1.42;;
48415;SDS011;34227;51.840;4.146;2022-08-19T10:06:24;3.80;;;1.70;;
48415;SDS011;34227;51.840;4.146;2022-08-19T10:08:51;2.42;;;1.30;;
48415;SDS011;34227;51.840;4.146;2022-08-19T10:11:18;2.42;;;1.67;;
48415;SDS011;34227;51.840;4.146;2022-08-19T10:13:45;4.85;;;1.60;;
48415;SDS011;34227;51.840;4.146;2022-08-19T10:16:15;3.05;;;1.65;;
48415;SDS011;34227;51.840;4.146;2022-08-19T10:18:44;3.90;;;1.40;;
48415;SDS011;34227;51.840;4.146;2022-08-19T10:21:12;7.25;;;1.70;;
48415;SDS011;34227;51.840;4.146;2022-08-19T10:23:47;4.75;;;1.77;;
48415;SDS011;34227;51.840;4.146;2022-08-19T10:26:19;5.50;;;1.77;;
48415;SDS011;34227;51.840;4.146;2022-08-19T10:28:55;3.47;;;1.50;;
48415;SDS011;34227;51.840;4.146;2022-08-19T10:31:23;5.28;;;2.28;;
48415;SDS011;34227;51.840;4.146;2022-08-19T10:33:51;5.15;;;1.80;;
48415;SDS011;34227;51.840;4.146;2022-08-19T10:36:23;3.60;;;1.60;;
48415;SDS011;34227;51.840;4.146;2022-08-19T10:38:54;2.92;;;1.20;;
48415;SDS011;34227;51.840;4.146;2022-08-19T10:41:24;3.28;;;1.20;;
48415;SDS011;34227;51.840;4.146;2022-08-19T10:43:52;5.05;;;1.52;;
48415;SDS011;34227;51.840;4.146;2022-08-19T10:46:24;1.90;;;1.20;;
48415;SDS011;34227;51.840;4.146;2022-08-19T10:48:50;3.10;;;1.35;;
48415;SDS011;34227;51.840;4.146;2022-08-19T10:51:16;3.92;;;2.13;;
48415;SDS011;34227;51.840;4.146;2022-08-19T10:54:01;4.65;;;1.77;;
48415;SDS011;34227;51.840;4.146;2022-08-19T10:56:27;3.08;;;1.77;;
48415;SDS011;34227;51.840;4.146;2022-08-19T10:59:12;5.28;;;1.35;;
48415;SDS011;34227;51.840;4.146;2022-08-19T11:01:39;5.32;;;1.80;;
48415;SDS011;34227;51.840;4.146;2022-08-19T11:04:07;2.97;;;2.08;;
48415;SDS011;34227;51.840;4.146;2022-08-19T11:06:39;4.07;;;1.50;;
48415;SDS011;34227;51.840;4.146;2022-08-19T11:09:06;3.95;;;1.25;;
48415;SDS011;34227;51.840;4.146;2022-08-19T11:11:33;3.53;;;1.30;;
48415;SDS011;34227;51.840;4.146;2022-08-19T11:14:08;3.22;;;1.10;;
48415;SDS011;34227;51.840;4.146;2022-08-19T11:16:39;1.95;;;0.90;;
48415;SDS011;34227;51.840;4.146;2022-08-19T11:19:06;4.57;;;1.17;;
48415;SDS011;34227;51.840;4.146;2022-08-19T11:21:34;2.63;;;1.33;;
48415;SDS011;34227;51.840;4.146;2022-08-19T11:24:07;2.28;;;1.10;;
48415;SDS011;34227;51.840;4.146;2022-08-19T11:26:35;3.80;;;1.60;;
48415;SDS011;34227;51.840;4.146;2022-08-19T11:29:03;4.07;;;1.70;;
48415;SDS011;34227;51.840;4.146;2022-08-19T11:31:32;2.13;;;1.00;;
48415;SDS011;34227;51.840;4.146;2022-08-19T11:34:02;3.38;;;1.40;;
48415;SDS011;34227;51.840;4.146;2022-08-19T11:36:30;4.10;;;1.48;;
48415;SDS011;34227;51.840;4.146;2022-08-19T11:39:00;1.73;;;1.10;;
48415;SDS011;34227;51.840;4.146;2022-08-19T11:41:26;2.33;;;0.82;;
48415;SDS011;34227;51.840;4.146;2022-08-19T11:43:53;2.63;;;1.08;;
48415;SDS011;34227;51.840;4.146;2022-08-19T11:46:20;2.28;;;0.93;;
48415;SDS011;34227;51.840;4.146;2022-08-19T11:48:48;4.88;;;1.42;;
48415;SDS011;34227;51.840;4.146;2022-08-19T11:51:16;4.13;;;1.83;;
48415;SDS011;34227;51.840;4.146;2022-08-19T11:53:45;7.43;;;1.50;;
48415;SDS011;34227;51.840;4.146;2022-08-19T11:56:11;2.97;;;1.50;;
48415;SDS011;34227;51.840;4.146;2022-08-19T11:58:37;2.88;;;1.67;;
48415;SDS011;34227;51.840;4.146;2022-08-19T12:01:22;5.82;;;1.60;;
48415;SDS011;34227;51.840;4.146;2022-08-19T12:03:50;3.35;;;1.40;;
48415;SDS011;34227;51.840;4.146;2022-08-19T12:06:19;3.45;;;1.30;;
48415;SDS011;34227;51.840;4.146;2022-08-19T12:08:53;3.97;;;1.45;;
48415;SDS011;34227;51.840;4.146;2022-08-19T12:11:20;3.10;;;1.17;;
48415;SDS011;34227;51.840;4.146;2022-08-19T12:13:46;2.78;;;1.45;;
48415;SDS011;34227;51.840;4.146;2022-08-19T12:16:14;3.45;;;1.63;;
48415;SDS011;34227;51.840;4.146;2022-08-19T12:18:42;3.47;;;1.20;;
48415;SDS011;34227;51.840;4.146;2022-08-19T12:21:12;5.72;;;1.38;;
48415;SDS011;34227;51.840;4.146;2022-08-19T12:23:39;3.00;;;1.25;;
48415;SDS011;34227;51.840;4.146;2022-08-19T12:26:06;4.03;;;1.73;;
48415;SDS011;34227;51.840;4.146;2022-08-19T12:28:34;3.67;;;1.25;;
48415;SDS011;34227;51.840;4.146;2022-08-19T12:31:03;3.80;;;0.85;;
48415;SDS011;34227;51.840;4.146;2022-08-19T12:33:28;2.78;;;1.10;;
48415;SDS011;34227;51.840;4.146;2022-08-19T12:35:54;3.97;;;1.38;;
48415;SDS011;34227;51.840;4.146;2022-08-19T12:38:28;1.77;;;0.82;;
48415;SDS011;34227;51.840;4.146;2022-08-19T12:40:55;1.52;;;1.00;;
48415;SDS011;34227;51.840;4.146;2022-08-19T12:43:20;1.60;;;0.90;;
48415;SDS011;34227;51.840;4.146;2022-08-19T12:45:46;3.25;;;1.73;;
48415;SDS011;34227;51.840;4.146;2022-08-19T12:48:12;1.92;;;1.10;;
48415;SDS011;34227;51.840;4.146;2022-08-19T12:50:40;1.25;;;0.80;;
48415;SDS011;34227;51.840;4.146;2022-08-19T12:53:06;2.10;;;0.88;;
48415;SDS011;34227;51.840;4.146;2022-08-19T12:55:32;1.67;;;0.90;;
48415;SDS011;34227;51.840;4.146;2022-08-19T12:57:59;2.60;;;0.98;;
48415;SDS011;34227;51.840;4.146;2022-08-19T13:00:26;1.15;;;0.50;;
48415;SDS011;34227;51.840;4.146;2022-08-19T13:02:52;2.60;;;0.93;;
48415;SDS011;34227;51.840;4.146;2022-08-19T13:05:22;1.85;;;0.98;;
48415;SDS011;34227;51.840;4.146;2022-08-19T13:07:50;3.08;;;1.05;;
48415;SDS011;34227;51.840;4.146;2022-08-19T13:10:19;2.90;;;1.02;;
48415;SDS011;34227;51.840;4.146;2022-08-19T13:12:46;1.50;;;0.70;;
48415;SDS011;34227;51.840;4.146;2022-08-19T13:15:14;3.08;;;1.13;;
48415;SDS011;34227;51.840;4.146;2022-08-19T13:17:43;2.40;;;1.13;;
48415;SDS011;34227;51.840;4.146;2022-08-19T13:20:09;16.02;;;2.97;;
48415;SDS011;34227;51.840;4.146;2022-08-19T13:22:38;10.57;;;2.10;;
48415;SDS011;34227;51.840;4.146;2022-08-19T13:25:05;3.90;;;1.50;;
48415;SDS011;34227;51.840;4.146;2022-08-19T13:27:38;3.95;;;1.27;;
48415;SDS011;34227;51.840;4.146;2022-08-19T13:30:04;3.65;;;1.35;;
48415;SDS011;34227;51.840;4.146;2022-08-19T13:32:52;3.67;;;1.60;;
48415;SDS011;34227;51.840;4.146;2022-08-19T13:35:50;3.53;;;1.10;;
48415;SDS011;34227;51.840;4.146;2022-08-19T13:38:21;4.88;;;1.30;;
48415;SDS011;34227;51.840;4.146;2022-08-19T13:40:47;5.30;;;1.52;;
48415;SDS011;34227;51.840;4.146;2022-08-19T13:43:15;4.68;;;1.30;;
48415;SDS011;34227;51.840;4.146;2022-08-19T13:45:42;3.38;;;1.33;;
48415;SDS011;34227;51.840;4.146;2022-08-19T13:48:08;6.32;;;1.77;;
48415;SDS011;34227;51.840;4.146;2022-08-19T13:50:39;5.82;;;2.13;;
48415;SDS011;34227;51.840;4.146;2022-08-19T13:53:06;6.88;;;1.95;;
48415;SDS011;34227;51.840;4.146;2022-08-19T13:55:33;6.90;;;2.90;;
48415;SDS011;34227;51.840;4.146;2022-08-19T13:58:01;7.00;;;1.80;;
48415;SDS011;34227;51.840;4.146;2022-08-19T14:00:29;3.85;;;1.65;;
48415;SDS011;34227;51.840;4.146;2022-08-19T14:02:57;6.60;;;1.98;;
48415;SDS011;34227;51.840;4.146;2022-08-19T14:05:26;7.40;;;1.98;;
48415;SDS011;34227;51.840;4.146;2022-08-19T14:07:57;7.65;;;2.17;;
48415;SDS011;34227;51.840;4.146;2022-08-19T14:10:23;5.18;;;1.90;;
48415;SDS011;34227;51.840;4.146;2022-08-19T14:12:56;5.28;;;1.90;;
48415;SDS011;34227;51.840;4.146;2022-08-19T14:15:23;7.32;;;2.53;;
48415;SDS011;34227;51.840;4.146;2022-08-19T14:17:50;7.80;;;2.08;;
48415;SDS011;34227;51.840;4.146;2022-08-19T14:20:17;7.35;;;2.60;;
48415;SDS011;34227;51.840;4.146;2022-08-19T14:22:43;6.50;;;1.75;;
48415;SDS011;34227;51.840;4.146;2022-08-19T14:25:11;5.78;;;1.90;;
48415;SDS011;34227;51.840;4.146;2022-08-19T14:27:40;4.05;;;1.60;;
48415;SDS011;34227;51.840;4.146;2022-08-19T14:30:07;5.03;;;1.42;;
48415;SDS011;34227;51.840;4.146;2022-08-19T14:32:38;5.65;;;1.30;;
48415;SDS011;34227;51.840;4.146;2022-08-19T14:35:04;4.22;;;1.55;;
48415;SDS011;34227;51.840;4.146;2022-08-19T14:37:33;2.45;;;1.20;;
48415;SDS011;34227;51.840;4.146;2022-08-19T14:39:59;3.17;;;0.98;;
48415;SDS011;34227;51.840;4.146;2022-08-19T14:42:26;2.33;;;0.95;;
48415;SDS011;34227;51.840;4.146;2022-08-19T14:44:52;3.90;;;1.10;;
48415;SDS011;34227;51.840;4.146;2022-08-19T14:47:17;2.03;;;0.70;;
48415;SDS011;34227;51.840;4.146;2022-08-19T14:49:43;3.70;;;0.68;;
48415;SDS011;34227;51.840;4.146;2022-08-19T14:52:09;2.53;;;0.73;;
48415;SDS011;34227;51.840;4.146;2022-08-19T14:54:38;0.68;;;0.50;;
48415;SDS011;34227;51.840;4.146;2022-08-19T14:57:03;2.30;;;0.43;;
48415;SDS011;34227;51.840;4.146;2022-08-19T14:59:29;2.60;;;0.57;;